createdAt,value
2023-04-02T00:00:48.596Z,0.00
2023-04-02T00:01:48.675Z,0.00
2023-04-02T00:02:48.660Z,0.00
2023-04-02T00:03:48.659Z,0.00
2023-04-02T00:04:48.624Z,0.00
2023-04-02T00:05:48.624Z,0.00
2023-04-02T00:06:48.638Z,0.00
2023-04-02T00:07:48.660Z,0.00
2023-04-02T00:08:48.647Z,0.00
2023-04-02T00:09:48.646Z,0.00
2023-04-02T00:10:48.658Z,0.00
2023-04-02T00:11:48.688Z,0.00
2023-04-02T00:12:48.665Z,0.00
2023-04-02T00:13:48.671Z,0.00
2023-04-02T00:14:48.744Z,0.00
2023-04-02T00:15:48.683Z,0.00
2023-04-02T00:16:48.749Z,0.00
2023-04-02T00:17:48.714Z,0.00
2023-04-02T00:18:48.698Z,0.00
2023-04-02T00:19:48.701Z,0.00
2023-04-02T00:20:48.721Z,0.00
2023-04-02T00:21:48.711Z,0.00
2023-04-02T00:22:48.722Z,0.00
2023-04-02T00:23:48.752Z,0.00
2023-04-02T00:24:48.732Z,0.00
2023-04-02T00:25:48.735Z,0.00
2023-04-02T00:26:48.752Z,0.00
2023-04-02T00:27:48.759Z,0.00
2023-04-02T00:28:48.757Z,0.00
2023-04-02T00:29:48.757Z,0.00
2023-04-02T00:30:48.762Z,0.00
2023-04-02T00:31:48.799Z,0.00
2023-04-02T00:32:48.814Z,0.00
2023-04-02T00:33:48.779Z,0.00
2023-04-02T00:34:48.788Z,0.00
2023-04-02T00:35:48.823Z,0.00
2023-04-02T00:36:48.795Z,0.00
2023-04-02T00:37:48.821Z,0.00
2023-04-02T00:38:48.979Z,0.00
2023-04-02T00:39:48.828Z,0.00
2023-04-02T00:40:48.819Z,0.00
2023-04-02T00:41:48.819Z,0.00
2023-04-02T00:42:48.829Z,0.00
2023-04-02T00:43:48.835Z,0.00
2023-04-02T00:44:48.851Z,0.00
2023-04-02T00:45:48.904Z,0.00
2023-04-02T00:46:48.850Z,0.00
2023-04-02T00:47:48.899Z,0.00
2023-04-02T00:48:48.875Z,0.00
2023-04-02T00:49:48.867Z,0.00
2023-04-02T00:50:48.875Z,0.00
2023-04-02T00:51:48.878Z,0.00
2023-04-02T00:52:48.881Z,0.00
2023-04-02T00:53:48.894Z,0.00
2023-04-02T00:54:48.893Z,0.00
2023-04-02T00:55:48.915Z,0.00
2023-04-02T00:56:48.923Z,0.00
2023-04-02T00:57:48.920Z,0.00
2023-04-02T00:58:48.913Z,0.00
2023-04-02T00:59:48.946Z,0.00
2023-04-02T01:00:48.931Z,0.00
2023-04-02T01:01:49.056Z,0.00
2023-04-02T01:02:48.995Z,0.00
2023-04-02T01:03:48.948Z,0.00
2023-04-02T01:04:48.947Z,0.00
2023-04-02T01:05:48.949Z,0.00
2023-04-02T01:06:48.956Z,0.00
2023-04-02T01:07:48.957Z,0.00
2023-04-02T01:08:48.964Z,0.00
2023-04-02T01:09:48.973Z,0.00
2023-04-02T01:10:48.976Z,0.00
2023-04-02T01:11:49.004Z,0.00
2023-04-02T01:12:49.007Z,0.00
2023-04-02T01:13:49.007Z,0.00
2023-04-02T01:14:49.000Z,0.00
2023-04-02T01:15:49.068Z,0.00
2023-04-02T01:16:49.006Z,0.00
2023-04-02T01:17:49.206Z,0.00
2023-04-02T01:18:49.019Z,0.00
2023-04-02T01:19:49.027Z,0.00
2023-04-02T01:20:49.029Z,0.00
2023-04-02T01:21:49.034Z,0.00
2023-04-02T01:22:49.060Z,0.00
2023-04-02T01:23:49.042Z,0.00
2023-04-02T01:24:49.047Z,0.00
2023-04-02T01:25:49.060Z,0.00
2023-04-02T01:26:49.069Z,0.00
2023-04-02T01:27:49.080Z,0.00
2023-04-02T01:28:49.069Z,0.00
2023-04-02T01:29:49.081Z,0.00
2023-04-02T01:30:49.079Z,0.00
2023-04-02T01:31:49.158Z,0.00
2023-04-02T01:32:49.170Z,0.00
2023-04-02T01:33:49.092Z,0.00
2023-04-02T01:34:49.108Z,0.00
2023-04-02T01:35:49.134Z,0.00
2023-04-02T01:36:49.119Z,0.00
2023-04-02T01:37:49.110Z,0.00
2023-04-02T01:38:49.114Z,0.00
2023-04-02T01:39:49.124Z,0.00
2023-04-02T01:40:49.132Z,0.00
2023-04-02T01:41:49.174Z,0.00
2023-04-02T01:42:49.158Z,0.00
2023-04-02T01:43:49.156Z,0.00
2023-04-02T01:44:49.152Z,0.00
2023-04-02T01:45:49.147Z,0.00
2023-04-02T01:46:49.261Z,0.00
2023-04-02T01:47:49.201Z,0.00
2023-04-02T01:48:49.163Z,0.00
2023-04-02T01:49:49.171Z,0.00
2023-04-02T01:50:49.172Z,0.00
2023-04-02T01:51:49.174Z,0.00
2023-04-02T01:52:49.180Z,0.00
2023-04-02T01:53:49.183Z,0.00
2023-04-02T01:54:49.215Z,0.00
2023-04-02T01:55:49.192Z,0.00
2023-04-02T01:56:49.248Z,0.00
2023-04-02T01:57:49.199Z,0.00
2023-04-02T01:58:49.206Z,0.00
2023-04-02T01:59:49.224Z,0.00
2023-04-02T02:00:49.245Z,0.00
2023-04-02T02:01:49.289Z,0.00
2023-04-02T02:02:49.268Z,0.00
2023-04-02T02:03:49.220Z,0.00
2023-04-02T02:04:49.226Z,0.00
2023-04-02T02:05:49.247Z,0.00
2023-04-02T02:06:49.237Z,0.00
2023-04-02T02:07:49.237Z,0.00
2023-04-02T02:08:49.240Z,0.00
2023-04-02T02:09:49.246Z,0.00
2023-04-02T02:10:49.257Z,0.00
2023-04-02T02:11:49.253Z,0.00
2023-04-02T02:12:49.264Z,0.00
2023-04-02T02:13:49.269Z,0.00
2023-04-02T02:14:49.274Z,0.00
2023-04-02T02:15:49.298Z,0.00
2023-04-02T02:16:49.354Z,0.00
2023-04-02T02:17:49.292Z,0.00
2023-04-02T02:18:49.290Z,0.00
2023-04-02T02:19:49.291Z,0.00
2023-04-02T02:20:49.297Z,0.00
2023-04-02T02:21:49.302Z,0.00
2023-04-02T02:22:49.311Z,0.00
2023-04-02T02:23:49.304Z,0.00
2023-04-02T02:24:49.317Z,0.00
2023-04-02T02:25:49.316Z,0.00
2023-04-02T02:26:49.321Z,0.00
2023-04-02T02:27:49.322Z,0.00
2023-04-02T02:28:49.358Z,0.00
2023-04-02T02:29:49.333Z,0.00
2023-04-02T02:30:49.340Z,0.00
2023-04-02T02:31:49.382Z,0.00
2023-04-02T02:32:49.359Z,0.00
2023-04-02T02:33:49.358Z,0.00
2023-04-02T02:34:49.375Z,0.00
2023-04-02T02:35:49.373Z,0.00
2023-04-02T02:36:49.368Z,0.00
2023-04-02T02:37:49.371Z,0.00
2023-04-02T02:38:49.411Z,0.00
2023-04-02T02:39:49.389Z,0.00
2023-04-02T02:40:49.382Z,0.00
2023-04-02T02:41:49.385Z,0.00
2023-04-02T02:42:49.395Z,0.00
2023-04-02T02:43:49.389Z,0.00
2023-04-02T02:44:49.410Z,0.00
2023-04-02T02:45:49.421Z,0.00
2023-04-02T02:46:49.409Z,0.00
2023-04-02T02:47:49.493Z,0.00
2023-04-02T02:48:49.413Z,0.00
2023-04-02T02:49:49.416Z,0.00
2023-04-02T02:50:49.427Z,0.00
2023-04-02T02:51:49.424Z,0.00
2023-04-02T02:52:49.477Z,0.00
2023-04-02T02:53:49.443Z,0.00
2023-04-02T02:54:49.439Z,0.00
2023-04-02T02:55:49.438Z,0.00
2023-04-02T02:56:49.471Z,0.00
2023-04-02T02:57:49.451Z,0.00
2023-04-02T02:58:49.456Z,0.00
2023-04-02T02:59:49.458Z,0.00
2023-04-02T03:00:49.462Z,0.00
2023-04-02T03:01:49.579Z,0.00
2023-04-02T03:02:49.604Z,0.00
2023-04-02T03:03:49.679Z,0.00
2023-04-02T03:04:49.501Z,0.00
2023-04-02T03:05:49.486Z,0.00
2023-04-02T03:06:49.489Z,0.00
2023-04-02T03:07:49.493Z,0.00
2023-04-02T03:08:49.495Z,0.00
2023-04-02T03:09:49.501Z,0.00
2023-04-02T03:10:49.513Z,0.00
2023-04-02T03:11:49.518Z,0.00
2023-04-02T03:12:49.514Z,0.00
2023-04-02T03:13:49.516Z,0.00
2023-04-02T03:14:49.525Z,0.00
2023-04-02T03:15:49.541Z,0.00
2023-04-02T03:16:49.529Z,0.00
2023-04-02T03:17:49.574Z,0.00
2023-04-02T03:18:49.540Z,0.00
2023-04-02T03:19:49.570Z,0.00
2023-04-02T03:20:49.565Z,0.00
2023-04-02T03:21:49.561Z,0.00
2023-04-02T03:22:49.570Z,0.00
2023-04-02T03:23:49.570Z,0.00
2023-04-02T03:24:49.573Z,0.00
2023-04-02T03:25:49.573Z,0.00
2023-04-02T03:26:49.588Z,0.00
2023-04-02T03:27:49.588Z,0.00
2023-04-02T03:28:49.589Z,0.00
2023-04-02T03:29:49.603Z,0.00
2023-04-02T03:30:49.605Z,0.00
2023-04-02T03:31:49.617Z,0.00
2023-04-02T03:32:49.659Z,0.00
2023-04-02T03:33:49.612Z,0.00
2023-04-02T03:34:49.624Z,0.00
2023-04-02T03:35:49.654Z,0.00
2023-04-02T03:36:49.623Z,0.00
2023-04-02T03:37:49.643Z,0.00
2023-04-02T03:38:49.636Z,0.00
2023-04-02T03:39:49.634Z,0.00
2023-04-02T03:40:49.643Z,0.00
2023-04-02T03:41:49.646Z,0.00
2023-04-02T03:42:49.692Z,0.00
2023-04-02T03:43:49.664Z,0.00
2023-04-02T03:44:49.665Z,0.00
2023-04-02T03:45:49.662Z,0.00
2023-04-02T03:46:49.739Z,0.00
2023-04-02T03:47:49.745Z,0.00
2023-04-02T03:48:49.688Z,0.00
2023-04-02T03:49:49.683Z,0.00
2023-04-02T03:50:49.691Z,0.00
2023-04-02T03:51:49.717Z,0.00
2023-04-02T03:52:49.697Z,0.00
2023-04-02T03:53:49.704Z,0.00
2023-04-02T03:54:54.037Z,0.00
2023-04-02T03:55:49.711Z,0.00
2023-04-02T03:56:49.766Z,0.00
2023-04-02T03:57:49.724Z,0.00
2023-04-02T03:58:49.728Z,0.00
2023-04-02T03:59:49.725Z,0.00
2023-04-02T04:00:49.733Z,0.00
2023-04-02T04:01:49.758Z,0.00
2023-04-02T04:02:49.768Z,0.00
2023-04-02T04:03:49.799Z,0.00
2023-04-02T04:04:49.755Z,0.00
2023-04-02T04:05:49.762Z,0.00
2023-04-02T04:06:49.760Z,0.00
2023-04-02T04:07:49.780Z,0.00
2023-04-02T04:08:49.769Z,0.00
2023-04-02T04:09:49.770Z,0.00
2023-04-02T04:10:49.814Z,0.00
2023-04-02T04:11:49.777Z,0.00
2023-04-02T04:12:49.785Z,0.00
2023-04-02T04:13:49.810Z,0.00
2023-04-02T04:14:49.795Z,0.00
2023-04-02T04:15:49.796Z,0.00
2023-04-02T04:16:49.881Z,0.00
2023-04-02T04:17:49.853Z,0.00
2023-04-02T04:18:49.814Z,0.00
2023-04-02T04:19:49.822Z,0.00
2023-04-02T04:20:49.816Z,0.00
2023-04-02T04:21:49.827Z,0.00
2023-04-02T04:22:49.866Z,0.00
2023-04-02T04:23:49.859Z,0.00
2023-04-02T04:24:49.834Z,0.00
2023-04-02T04:25:49.850Z,0.00
2023-04-02T04:26:49.852Z,0.00
2023-04-02T04:27:49.859Z,0.00
2023-04-02T04:28:49.872Z,0.00
2023-04-02T04:29:49.871Z,0.00
2023-04-02T04:30:49.880Z,0.00
2023-04-02T04:31:49.967Z,0.00
2023-04-02T04:32:49.927Z,0.00
2023-04-02T04:33:49.880Z,0.00
2023-04-02T04:34:49.882Z,0.00
2023-04-02T04:35:49.917Z,0.00
2023-04-02T04:36:49.889Z,0.00
2023-04-02T04:37:49.901Z,0.00
2023-04-02T04:38:49.907Z,0.00
2023-04-02T04:39:49.930Z,0.00
2023-04-02T04:40:49.908Z,0.00
2023-04-02T04:41:49.917Z,0.00
2023-04-02T04:42:49.925Z,0.00
2023-04-02T04:43:49.931Z,0.00
2023-04-02T04:44:49.928Z,0.00
2023-04-02T04:45:49.967Z,0.00
2023-04-02T04:46:49.950Z,0.00
2023-04-02T04:47:50.010Z,0.00
2023-04-02T04:48:49.943Z,0.00
2023-04-02T04:49:49.959Z,0.00
2023-04-02T04:50:49.954Z,0.00
2023-04-02T04:51:49.961Z,0.00
2023-04-02T04:52:49.980Z,0.00
2023-04-02T04:53:49.972Z,0.00
2023-04-02T04:54:49.968Z,0.00
2023-04-02T04:55:50.003Z,0.00
2023-04-02T04:56:50.032Z,0.00
2023-04-02T04:57:49.993Z,0.00
2023-04-02T04:58:49.988Z,0.00
2023-04-02T04:59:49.996Z,0.00
2023-04-02T05:00:50.222Z,0.00
2023-04-02T05:01:50.053Z,0.00
2023-04-02T05:02:50.096Z,0.00
2023-04-02T05:03:50.009Z,0.00
2023-04-02T05:04:50.116Z,0.00
2023-04-02T05:05:50.026Z,0.00
2023-04-02T05:06:50.021Z,0.00
2023-04-02T05:07:50.040Z,0.00
2023-04-02T05:08:50.032Z,0.00
2023-04-02T05:09:50.036Z,0.00
2023-04-02T05:10:50.037Z,0.00
2023-04-02T05:11:50.066Z,0.00
2023-04-02T05:12:50.047Z,0.00
2023-04-02T05:13:50.059Z,0.00
2023-04-02T05:14:50.067Z,0.00
2023-04-02T05:15:50.096Z,0.00
2023-04-02T05:16:50.062Z,0.00
2023-04-02T05:17:50.084Z,0.00
2023-04-02T05:18:50.073Z,0.00
2023-04-02T05:19:50.083Z,0.00
2023-04-02T05:20:50.085Z,0.00
2023-04-02T05:21:50.091Z,0.00
2023-04-02T05:22:50.085Z,0.00
2023-04-02T05:23:50.105Z,0.00
2023-04-02T05:24:50.113Z,0.00
2023-04-02T05:25:50.107Z,0.00
2023-04-02T05:26:50.106Z,0.00
2023-04-02T05:27:50.132Z,0.00
2023-04-02T05:28:50.108Z,0.00
2023-04-02T05:29:50.117Z,0.00
2023-04-02T05:30:50.118Z,0.00
2023-04-02T05:31:50.200Z,0.00
2023-04-02T05:32:50.146Z,0.00
2023-04-02T05:33:50.130Z,0.00
2023-04-02T05:34:50.159Z,0.00
2023-04-02T05:35:50.177Z,0.00
2023-04-02T05:36:50.156Z,0.00
2023-04-02T05:37:50.155Z,0.00
2023-04-02T05:38:50.153Z,0.00
2023-04-02T05:39:50.158Z,0.00
2023-04-02T05:40:50.158Z,0.00
2023-04-02T05:41:50.166Z,0.00
2023-04-02T05:42:50.171Z,0.00
2023-04-02T05:43:50.195Z,0.00
2023-04-02T05:44:50.178Z,0.00
2023-04-02T05:45:50.187Z,0.00
2023-04-02T05:46:50.274Z,0.00
2023-04-02T05:47:50.229Z,0.00
2023-04-02T05:48:50.189Z,0.00
2023-04-02T05:49:50.201Z,0.00
2023-04-02T05:50:50.199Z,0.00
2023-04-02T05:51:50.224Z,0.00
2023-04-02T05:52:50.207Z,0.00
2023-04-02T05:53:50.221Z,0.00
2023-04-02T05:54:50.218Z,0.00
2023-04-02T05:55:50.220Z,0.00
2023-04-02T05:56:50.265Z,0.00
2023-04-02T05:58:07.059Z,0.00
2023-04-02T05:58:50.290Z,0.00
2023-04-02T05:59:50.257Z,0.00
2023-04-02T06:00:50.237Z,0.00
2023-04-02T06:01:50.298Z,0.00
2023-04-02T06:02:50.418Z,0.00
2023-04-02T06:03:50.317Z,0.00
2023-04-02T06:04:50.253Z,0.00
2023-04-02T06:05:50.258Z,0.00
2023-04-02T06:06:50.260Z,0.00
2023-04-02T06:07:50.271Z,0.00
2023-04-02T06:08:50.267Z,0.00
2023-04-02T06:09:50.275Z,0.00
2023-04-02T06:10:50.275Z,0.00
2023-04-02T06:11:50.293Z,0.00
2023-04-02T06:12:50.281Z,0.00
2023-04-02T06:13:50.287Z,0.00
2023-04-02T06:14:50.294Z,0.00
2023-04-02T06:15:50.319Z,0.00
2023-04-02T06:16:50.358Z,0.00
2023-04-02T06:17:50.344Z,0.00
2023-04-02T06:18:50.305Z,0.00
2023-04-02T06:19:50.314Z,0.00
2023-04-02T06:20:50.316Z,0.00
2023-04-02T06:21:50.322Z,0.00
2023-04-02T06:22:50.322Z,0.00
2023-04-02T06:23:50.329Z,0.00
2023-04-02T06:24:50.329Z,0.00
2023-04-02T06:25:50.343Z,0.00
2023-04-02T06:26:50.344Z,0.00
2023-04-02T06:27:50.367Z,0.00
2023-04-02T06:28:50.345Z,5.63
2023-04-02T06:29:50.356Z,5.63
2023-04-02T06:30:50.434Z,5.63
2023-04-02T06:31:50.382Z,5.63
2023-04-02T06:32:50.455Z,5.63
2023-04-02T06:33:50.372Z,5.63
2023-04-02T06:34:50.374Z,5.63
2023-04-02T06:35:50.442Z,5.63
2023-04-02T06:36:50.380Z,5.63
2023-04-02T06:37:50.390Z,5.63
2023-04-02T06:38:50.391Z,5.63
2023-04-02T06:39:50.396Z,5.63
2023-04-02T06:40:50.431Z,5.63
2023-04-02T06:41:50.409Z,5.63
2023-04-02T06:42:50.407Z,5.63
2023-04-02T06:43:50.426Z,5.63
2023-04-02T06:44:50.416Z,5.63
2023-04-02T06:45:50.489Z,5.63
2023-04-02T06:46:52.418Z,5.63
2023-04-02T06:47:50.555Z,5.63
2023-04-02T06:48:50.454Z,5.63
2023-04-02T06:49:50.438Z,5.63
2023-04-02T06:50:50.446Z,5.63
2023-04-02T06:51:50.456Z,5.63
2023-04-02T06:52:50.451Z,5.63
2023-04-02T06:53:50.458Z,5.63
2023-04-02T06:54:50.530Z,5.63
2023-04-02T06:55:50.492Z,11.25
2023-04-02T06:56:50.506Z,11.25
2023-04-02T06:57:50.475Z,11.25
2023-04-02T06:58:50.474Z,11.25
2023-04-02T06:59:50.493Z,11.25
2023-04-02T07:00:50.487Z,11.25
2023-04-02T07:01:50.530Z,11.25
2023-04-02T07:02:50.590Z,11.25
2023-04-02T07:03:50.517Z,11.25
2023-04-02T07:04:50.570Z,11.25
2023-04-02T07:05:50.510Z,11.25
2023-04-02T07:06:50.506Z,11.25
2023-04-02T07:07:50.513Z,11.25
2023-04-02T07:08:50.520Z,11.25
2023-04-02T07:09:50.520Z,11.25
2023-04-02T07:10:50.523Z,11.25
2023-04-02T07:11:50.532Z,11.25
2023-04-02T07:12:50.545Z,11.25
2023-04-02T07:13:50.546Z,11.25
2023-04-02T07:14:50.539Z,11.25
2023-04-02T07:15:50.572Z,11.25
2023-04-02T07:16:50.548Z,11.25
2023-04-02T07:17:50.590Z,11.25
2023-04-02T07:18:50.559Z,11.25
2023-04-02T07:19:50.694Z,11.25
2023-04-02T07:20:52.038Z,11.25
2023-04-02T07:21:50.600Z,11.25
2023-04-02T07:22:50.576Z,11.25
2023-04-02T07:23:50.599Z,11.25
2023-04-02T07:24:50.584Z,11.25
2023-04-02T07:25:50.589Z,11.25
2023-04-02T07:26:50.591Z,11.25
2023-04-02T07:27:50.603Z,11.25
2023-04-02T07:28:50.599Z,11.25
2023-04-02T07:29:50.606Z,11.25
2023-04-02T07:30:50.628Z,11.25
2023-04-02T07:31:50.703Z,11.25
2023-04-02T07:32:50.657Z,11.25
2023-04-02T07:33:50.627Z,11.25
2023-04-02T07:34:50.625Z,11.25
2023-04-02T07:35:50.691Z,11.25
2023-04-02T07:36:50.639Z,11.25
2023-04-02T07:37:50.641Z,11.25
2023-04-02T07:38:50.647Z,11.25
2023-04-02T07:39:50.653Z,11.25
2023-04-02T07:40:50.654Z,11.25
2023-04-02T07:41:50.660Z,11.25
2023-04-02T07:42:50.663Z,11.25
2023-04-02T07:43:50.674Z,11.25
2023-04-02T07:44:50.671Z,11.25
2023-04-02T07:45:50.695Z,11.25
2023-04-02T07:46:50.719Z,11.25
2023-04-02T07:47:50.735Z,11.25
2023-04-02T07:48:50.691Z,11.25
2023-04-02T07:49:50.694Z,11.25
2023-04-02T07:50:50.700Z,11.25
2023-04-02T07:51:50.740Z,11.25
2023-04-02T07:52:50.710Z,16.88
2023-04-02T07:53:50.714Z,16.88
2023-04-02T07:54:50.716Z,16.88
2023-04-02T07:55:50.726Z,16.88
2023-04-02T07:56:50.831Z,16.88
2023-04-02T07:57:50.759Z,16.88
2023-04-02T07:58:50.736Z,16.88
2023-04-02T07:59:50.746Z,16.88
2023-04-02T08:00:50.759Z,16.88
2023-04-02T08:01:50.778Z,16.88
2023-04-02T08:02:50.871Z,16.88
2023-04-02T08:03:52.993Z,16.88
2023-04-02T08:04:50.769Z,16.88
2023-04-02T08:05:50.770Z,16.88
2023-04-02T08:06:50.791Z,16.88
2023-04-02T08:07:50.802Z,16.88
2023-04-02T08:08:50.790Z,16.88
2023-04-02T08:09:50.788Z,16.88
2023-04-02T08:10:50.797Z,16.88
2023-04-02T08:11:50.805Z,16.88
2023-04-02T08:12:50.797Z,16.88
2023-04-02T08:13:50.822Z,16.88
2023-04-02T08:14:50.815Z,16.88
2023-04-02T08:15:50.819Z,22.50
2023-04-02T08:16:50.846Z,22.50
2023-04-02T08:17:50.854Z,22.50
2023-04-02T08:18:50.829Z,22.50
2023-04-02T08:19:55.053Z,22.50
2023-04-02T08:20:50.836Z,22.50
2023-04-02T08:21:50.846Z,22.50
2023-04-02T08:22:50.851Z,22.50
2023-04-02T08:23:50.873Z,22.50
2023-04-02T08:24:50.863Z,22.50
2023-04-02T08:25:50.863Z,22.50
2023-04-02T08:26:50.865Z,22.50
2023-04-02T08:27:50.888Z,22.50
2023-04-02T08:28:50.876Z,22.50
2023-04-02T08:29:50.894Z,22.50
2023-04-02T08:30:50.938Z,22.50
2023-04-02T08:31:50.894Z,22.50
2023-04-02T08:32:50.952Z,22.50
2023-04-02T08:33:50.904Z,22.50
2023-04-02T08:34:50.907Z,28.13
2023-04-02T08:35:50.951Z,28.13
2023-04-02T08:36:50.918Z,28.13
2023-04-02T08:37:50.917Z,28.13
2023-04-02T08:38:50.926Z,28.13
2023-04-02T08:39:50.948Z,28.13
2023-04-02T08:40:50.933Z,28.13
2023-04-02T08:41:50.935Z,28.13
2023-04-02T08:42:50.947Z,28.13
2023-04-02T08:43:50.947Z,28.13
2023-04-02T08:44:50.967Z,28.13
2023-04-02T08:45:50.982Z,22.50
2023-04-02T08:46:50.969Z,22.50
2023-04-02T08:47:51.029Z,28.13
2023-04-02T08:48:50.983Z,28.13
2023-04-02T08:49:50.974Z,28.13
2023-04-02T08:50:50.990Z,28.13
2023-04-02T08:51:50.982Z,28.13
2023-04-02T08:52:50.989Z,28.13
2023-04-02T08:53:50.994Z,28.13
2023-04-02T08:54:51.014Z,28.13
2023-04-02T08:55:51.023Z,28.13
2023-04-02T08:56:51.056Z,28.13
2023-04-02T08:57:51.017Z,28.13
2023-04-02T08:58:51.023Z,33.75
2023-04-02T08:59:51.026Z,28.13
2023-04-02T09:00:51.032Z,33.75
2023-04-02T09:01:51.118Z,28.13
2023-04-02T09:02:51.155Z,28.13
2023-04-02T09:03:51.052Z,28.13
2023-04-02T09:04:51.104Z,28.13
2023-04-02T09:05:51.068Z,28.13
2023-04-02T09:06:51.063Z,28.13
2023-04-02T09:07:51.060Z,33.75
2023-04-02T09:08:51.077Z,28.13
2023-04-02T09:09:51.103Z,28.13
2023-04-02T09:10:51.080Z,28.13
2023-04-02T09:11:51.104Z,28.13
2023-04-02T09:12:51.103Z,33.75
2023-04-02T09:13:51.092Z,33.75
2023-04-02T09:14:51.105Z,33.75
2023-04-02T09:15:51.129Z,33.75
2023-04-02T09:16:51.116Z,33.75
2023-04-02T09:17:54.453Z,33.75
2023-04-02T09:18:51.129Z,33.75
2023-04-02T09:19:51.127Z,28.13
2023-04-02T09:20:51.135Z,28.13
2023-04-02T09:21:51.138Z,39.38
2023-04-02T09:22:51.148Z,33.75
2023-04-02T09:23:51.154Z,28.13
2023-04-02T09:24:51.167Z,33.75
2023-04-02T09:26:03.020Z,33.75
2023-04-02T09:26:51.175Z,33.75
2023-04-02T09:27:51.195Z,33.75
2023-04-02T09:28:51.184Z,33.75
2023-04-02T09:29:51.182Z,33.75
2023-04-02T09:30:51.196Z,33.75
2023-04-02T09:31:51.217Z,33.75
2023-04-02T09:32:51.360Z,39.38
2023-04-02T09:33:51.207Z,39.38
2023-04-02T09:34:51.233Z,39.38
2023-04-02T09:35:51.236Z,39.38
2023-04-02T09:36:51.242Z,39.38
2023-04-02T09:37:51.236Z,39.38
2023-04-02T09:38:51.247Z,39.38
2023-04-02T09:39:51.255Z,39.38
2023-04-02T09:40:51.252Z,39.38
2023-04-02T09:42:04.571Z,39.38
2023-04-02T09:42:51.269Z,39.38
2023-04-02T09:43:51.290Z,39.38
2023-04-02T09:44:51.277Z,39.38
2023-04-02T09:45:51.282Z,39.38
2023-04-02T09:46:51.336Z,39.38
2023-04-02T09:47:51.360Z,39.38
2023-04-02T09:48:51.304Z,45.00
2023-04-02T09:49:51.310Z,45.00
2023-04-02T09:50:51.317Z,45.00
2023-04-02T09:51:51.321Z,45.00
2023-04-02T09:52:51.379Z,45.00
2023-04-02T09:53:51.340Z,45.00
2023-04-02T09:54:51.343Z,45.00
2023-04-02T09:55:51.345Z,45.00
2023-04-02T09:56:51.397Z,45.00
2023-04-02T09:57:51.357Z,45.00
2023-04-02T09:58:51.368Z,39.38
2023-04-02T09:59:51.396Z,45.00
2023-04-02T10:00:51.444Z,45.00
2023-04-02T10:01:51.385Z,45.00
2023-04-02T10:02:51.452Z,45.00
2023-04-02T10:03:51.437Z,45.00
2023-04-02T10:04:51.408Z,50.63
2023-04-02T10:05:51.416Z,39.38
2023-04-02T10:06:51.422Z,39.38
2023-04-02T10:07:51.429Z,39.38
2023-04-02T10:08:51.443Z,45.00
2023-04-02T10:09:51.444Z,50.63
2023-04-02T10:10:51.477Z,39.38
2023-04-02T10:11:51.462Z,39.38
2023-04-02T10:12:51.473Z,39.38
2023-04-02T10:13:51.477Z,50.63
2023-04-02T10:14:51.480Z,50.63
2023-04-02T10:15:51.517Z,50.63
2023-04-02T10:16:51.547Z,39.38
2023-04-02T10:17:51.586Z,50.63
2023-04-02T10:18:51.523Z,56.25
2023-04-02T10:19:51.517Z,56.25
2023-04-02T10:20:51.746Z,33.75
2023-04-02T10:21:51.528Z,39.38
2023-04-02T10:22:51.542Z,50.63
2023-04-02T10:23:51.558Z,33.75
2023-04-02T10:24:51.568Z,39.38
2023-04-02T10:25:51.562Z,39.38
2023-04-02T10:26:51.565Z,33.75
2023-04-02T10:27:51.577Z,33.75
2023-04-02T10:28:51.585Z,28.13
2023-04-02T10:29:51.590Z,28.13
2023-04-02T10:30:51.632Z,28.13
2023-04-02T10:31:51.621Z,28.13
2023-04-02T10:32:51.658Z,28.13
2023-04-02T10:33:51.628Z,28.13
2023-04-02T10:34:51.637Z,22.50
2023-04-02T10:35:51.645Z,22.50
2023-04-02T10:36:51.645Z,22.50
2023-04-02T10:37:51.662Z,22.50
2023-04-02T10:38:51.655Z,22.50
2023-04-02T10:39:51.660Z,22.50
2023-04-02T10:40:51.667Z,22.50
2023-04-02T10:41:51.676Z,22.50
2023-04-02T10:42:51.683Z,22.50
2023-04-02T10:43:51.688Z,22.50
2023-04-02T10:44:51.700Z,22.50
2023-04-02T10:45:51.713Z,22.50
2023-04-02T10:46:51.708Z,22.50
2023-04-02T10:47:51.845Z,22.50
2023-04-02T10:48:51.724Z,22.50
2023-04-02T10:49:51.789Z,22.50
2023-04-02T10:50:51.757Z,22.50
2023-04-02T10:51:51.739Z,22.50
2023-04-02T10:52:51.751Z,22.50
2023-04-02T10:53:51.752Z,22.50
2023-04-02T10:54:51.771Z,22.50
2023-04-02T10:55:51.767Z,22.50
2023-04-02T10:56:51.776Z,22.50
2023-04-02T10:57:51.779Z,22.50
2023-04-02T10:58:51.794Z,22.50
2023-04-02T10:59:51.794Z,22.50
2023-04-02T11:00:51.804Z,22.50
2023-04-02T11:01:51.850Z,22.50
2023-04-02T11:02:51.884Z,22.50
2023-04-02T11:03:51.935Z,22.50
2023-04-02T11:04:51.829Z,22.50
2023-04-02T11:05:51.834Z,22.50
2023-04-02T11:06:58.084Z,22.50
2023-04-02T11:07:51.848Z,22.50
2023-04-02T11:08:51.862Z,22.50
2023-04-02T11:09:51.942Z,22.50
2023-04-02T11:10:51.874Z,22.50
2023-04-02T11:11:51.890Z,28.13
2023-04-02T11:12:51.888Z,28.13
2023-04-02T11:13:51.897Z,28.13
2023-04-02T11:14:51.904Z,28.13
2023-04-02T11:15:51.936Z,28.13
2023-04-02T11:16:51.926Z,28.13
2023-04-02T11:17:51.947Z,28.13
2023-04-02T11:18:51.930Z,33.75
2023-04-02T11:19:51.958Z,39.38
2023-04-02T11:20:51.950Z,33.75
2023-04-02T11:21:58.591Z,56.25
2023-04-02T11:22:51.966Z,61.88
2023-04-02T11:23:51.969Z,39.38
2023-04-02T11:24:51.974Z,33.75
2023-04-02T11:25:51.982Z,28.13
2023-04-02T11:26:51.990Z,28.13
2023-04-02T11:27:51.993Z,28.13
2023-04-02T11:28:52.008Z,45.00
2023-04-02T11:29:52.010Z,28.13
2023-04-02T11:30:52.019Z,28.13
2023-04-02T11:31:52.096Z,28.13
2023-04-02T11:32:52.086Z,28.13
2023-04-02T11:33:52.049Z,28.13
2023-04-02T11:35:05.046Z,22.50
2023-04-02T11:35:52.132Z,22.50
2023-04-02T11:36:52.069Z,16.88
2023-04-02T11:37:52.068Z,16.88
2023-04-02T11:38:52.575Z,16.88
2023-04-02T11:39:52.090Z,16.88
2023-04-02T11:40:52.105Z,16.88
2023-04-02T11:41:52.108Z,16.88
2023-04-02T11:42:52.108Z,16.88
2023-04-02T11:43:52.132Z,16.88
2023-04-02T11:44:52.128Z,16.88
2023-04-02T11:45:53.200Z,16.88
2023-04-02T11:46:52.219Z,11.25
2023-04-02T11:47:52.203Z,11.25
2023-04-02T11:48:52.160Z,11.25
2023-04-02T11:49:52.157Z,11.25
2023-04-02T11:50:52.174Z,11.25
2023-04-02T11:51:56.553Z,11.25
2023-04-02T11:52:52.185Z,11.25
2023-04-02T11:53:52.189Z,11.25
2023-04-02T11:54:52.199Z,11.25
2023-04-02T11:55:52.204Z,11.25
2023-04-02T11:56:52.233Z,11.25
2023-04-02T11:57:52.221Z,11.25
2023-04-02T11:58:52.225Z,11.25
2023-04-02T11:59:52.231Z,11.25
2023-04-02T12:00:52.261Z,11.25
2023-04-02T12:01:52.272Z,11.25
2023-04-02T12:02:52.299Z,11.25
2023-04-02T12:03:52.253Z,11.25
2023-04-02T12:04:52.303Z,11.25
2023-04-02T12:05:52.266Z,11.25
2023-04-02T12:06:52.287Z,11.25
2023-04-02T12:07:52.621Z,11.25
2023-04-02T12:08:57.977Z,11.25
2023-04-02T12:09:52.308Z,11.25
2023-04-02T12:10:52.310Z,11.25
2023-04-02T12:11:52.432Z,11.25
2023-04-02T12:12:52.315Z,11.25
2023-04-02T12:13:52.345Z,11.25
2023-04-02T12:14:52.346Z,11.25
2023-04-02T12:15:52.340Z,11.25
2023-04-02T12:16:52.385Z,11.25
2023-04-02T12:17:52.367Z,11.25
2023-04-02T12:18:52.359Z,11.25
2023-04-02T12:19:52.407Z,11.25
2023-04-02T12:20:52.382Z,11.25
2023-04-02T12:21:52.383Z,11.25
2023-04-02T12:22:52.395Z,11.25
2023-04-02T12:23:52.416Z,11.25
2023-04-02T12:24:52.408Z,11.25
2023-04-02T12:25:52.406Z,11.25
2023-04-02T12:26:52.418Z,11.25
2023-04-02T12:27:52.421Z,11.25
2023-04-02T12:28:52.436Z,11.25
2023-04-02T12:29:52.442Z,11.25
2023-04-02T12:30:52.475Z,11.25
2023-04-02T12:31:52.457Z,16.88
2023-04-02T12:32:52.502Z,16.88
2023-04-02T12:33:52.464Z,16.88
2023-04-02T12:34:52.477Z,16.88
2023-04-02T12:35:52.532Z,16.88
2023-04-02T12:36:52.490Z,16.88
2023-04-02T12:37:52.512Z,16.88
2023-04-02T12:38:52.513Z,16.88
2023-04-02T12:39:52.526Z,16.88
2023-04-02T12:40:52.516Z,16.88
2023-04-02T12:41:52.521Z,16.88
2023-04-02T12:42:52.533Z,16.88
2023-04-02T12:43:52.545Z,16.88
2023-04-02T12:44:52.545Z,16.88
2023-04-02T12:45:52.558Z,16.88
2023-04-02T12:46:52.568Z,16.88
2023-04-02T12:47:52.599Z,16.88
2023-04-02T12:48:52.586Z,16.88
2023-04-02T12:49:52.580Z,16.88
2023-04-02T12:50:52.591Z,16.88
2023-04-02T12:51:52.594Z,16.88
2023-04-02T12:52:52.603Z,16.88
2023-04-02T12:53:52.631Z,16.88
2023-04-02T12:54:52.618Z,16.88
2023-04-02T12:55:52.651Z,16.88
2023-04-02T12:56:52.663Z,16.88
2023-04-02T12:57:52.640Z,16.88
2023-04-02T12:58:52.647Z,22.50
2023-04-02T12:59:52.659Z,22.50
2023-04-02T13:00:52.664Z,22.50
2023-04-02T13:01:52.728Z,22.50
2023-04-02T13:02:52.787Z,22.50
2023-04-02T13:03:52.751Z,22.50
2023-04-02T13:04:52.730Z,22.50
2023-04-02T13:05:52.712Z,22.50
2023-04-02T13:06:52.705Z,22.50